Terminal Aerodrome Forecast
Issued by NWS

Home | Current Version | Previous Version | Text Only | Print | Product List | Glossary On
Versions: 1 2 3 4 5 6 7 8 9 10 11 12 13
000
FTUS42 KMLB 041731
TAFLEE
TAF
KLEE 041731Z 0418/0518 15012G18KT P6SM SCT035
     FM050000 13006KT P6SM BKN035
     FM050600 16004KT P6SM SCT002 BKN004
     FM051300 16006KT P6SM SCT004 BKN010
     FM051500 17010KT P6SM SCT025=

USA.gov is the U.S. government's official web portal to all federal, state and local government web resources and services.